KBNL/BNL METAR and TAF weather

Enter ICAO airport designator
Station Type Date Time Source
KBNL METAR 2020/09/20 06:55 UTC NOAA

KBNL 200655Z AUTO 03011KT 10SM 15/10 A3023 RMK AO2


Station Type Date Time Source
KBNL Decoded METAR 2020/09/20 06:55 UTC NOAA

Station name not available
Sep 20, 2020 - 02:55 AM EDT / 2020.09.20 0655 UTC
Wind: from the NNE (030 degrees) at 13 MPH (11 KT):0
Visibility: 10 mile(s):0
Temperature: 59 F (15 C)
Dew Point: 50 F (10 C)
Relative Humidity: 72%
Pressure (altimeter): 30.23 in. Hg (1023 hPa)
ob: KBNL 200655Z AUTO 03011KT 10SM 15/10 A3023 RMK AO2
cycle: 7

Station Type Date Time Source
KBNL TAF UTC NOAA

Error!

Example: see airport list